createdAt,value
2022-08-08T00:02:43.208Z,15.18
2022-08-08T00:07:59.826Z,15.21
2022-08-08T00:13:04.070Z,15.18
2022-08-08T00:18:23.376Z,15.13
2022-08-08T00:23:47.360Z,15.10
2022-08-08T00:28:53.348Z,15.01
2022-08-08T00:34:34.862Z,15.01
2022-08-08T00:41:10.464Z,14.86
2022-08-08T00:45:49.464Z,14.92
2022-08-08T00:51:03.633Z,14.96
2022-08-08T00:56:21.154Z,15.04
2022-08-08T01:01:42.190Z,14.96
2022-08-08T01:07:08.341Z,14.99
2022-08-08T01:12:43.705Z,14.97
2022-08-08T01:18:16.142Z,15.14
2022-08-08T01:24:05.678Z,15.19
2022-08-08T01:29:27.975Z,15.10
2022-08-08T01:34:53.863Z,15.00
2022-08-08T01:40:14.658Z,14.93
2022-08-08T01:45:58.807Z,14.83
2022-08-08T01:51:31.362Z,14.69
2022-08-08T01:56:42.405Z,14.77
2022-08-08T02:02:09.314Z,14.87
2022-08-08T02:07:41.705Z,14.82
2022-08-08T02:12:56.073Z,14.88
2022-08-08T02:18:10.828Z,14.88
2022-08-08T02:23:31.699Z,14.86
2022-08-08T02:29:00.380Z,14.73
2022-08-08T02:34:39.285Z,14.64
2022-08-08T02:40:12.410Z,14.53
2022-08-08T02:45:51.464Z,14.47
2022-08-08T02:51:30.557Z,14.33
2022-08-08T02:56:47.909Z,14.39
2022-08-08T03:02:30.403Z,14.45
2022-08-08T03:07:58.280Z,14.48
2022-08-08T03:15:53.665Z,14.48
2022-08-08T03:18:53.246Z,14.42
2022-08-08T03:24:00.113Z,14.54
2022-08-08T03:29:16.942Z,14.69
2022-08-08T03:34:23.681Z,14.75
2022-08-08T03:39:29.408Z,14.82
2022-08-08T03:44:33.748Z,15.06
2022-08-08T03:50:00.919Z,15.56
2022-08-08T03:55:19.838Z,16.00
2022-08-08T04:00:27.181Z,16.67
2022-08-08T04:05:39.863Z,17.01
2022-08-08T04:10:59.794Z,16.86
2022-08-08T04:16:05.677Z,16.82
2022-08-08T04:21:12.490Z,17.04
2022-08-08T04:26:16.645Z,17.43
2022-08-08T04:31:56.784Z,17.63
2022-08-08T04:36:44.505Z,17.97
2022-08-08T04:41:49.017Z,18.23
2022-08-08T04:46:53.249Z,18.39
2022-08-08T04:51:57.432Z,18.56
2022-08-08T04:57:01.550Z,18.63
2022-08-08T05:02:03.728Z,18.62
2022-08-08T05:07:09.852Z,18.70
2022-08-08T05:12:21.033Z,18.96
2022-08-08T05:17:25.286Z,18.81
2022-08-08T05:22:28.094Z,19.26
2022-08-08T05:27:41.400Z,19.12
2022-08-08T05:32:44.678Z,19.13
2022-08-08T05:38:30.863Z,19.08
2022-08-08T05:44:02.166Z,19.00
2022-08-08T05:48:55.109Z,19.10
2022-08-08T05:54:27.238Z,19.27
2022-08-08T06:00:00.822Z,19.39
2022-08-08T06:04:55.146Z,19.52
2022-08-08T06:10:02.315Z,19.61
2022-08-08T06:15:09.192Z,19.27
2022-08-08T06:20:20.985Z,19.59
2022-08-08T06:26:34.840Z,19.52
2022-08-08T06:30:48.465Z,19.97
2022-08-08T06:36:06.994Z,19.86
2022-08-08T06:41:17.697Z,20.02
2022-08-08T06:46:23.810Z,20.13
2022-08-08T06:51:31.187Z,20.15
2022-08-08T06:56:54.852Z,20.26
2022-08-08T07:02:27.268Z,20.49
2022-08-08T07:07:38.560Z,20.26
2022-08-08T07:13:07.345Z,20.41
2022-08-08T07:18:35.143Z,20.75
2022-08-08T07:24:01.063Z,21.02
2022-08-08T07:29:11.691Z,20.95
2022-08-08T07:34:32.404Z,20.93
2022-08-08T07:39:56.236Z,21.21
2022-08-08T07:45:06.057Z,21.62
2022-08-08T07:50:11.788Z,21.40
2022-08-08T07:55:28.622Z,21.66
2022-08-08T08:00:51.724Z,22.40
2022-08-08T08:05:58.833Z,22.67
2022-08-08T08:11:16.164Z,22.51
2022-08-08T08:16:24.537Z,22.67
2022-08-08T08:21:57.524Z,22.78
2022-08-08T08:27:17.760Z,22.54
2022-08-08T08:32:31.429Z,22.90
2022-08-08T08:37:47.960Z,22.44
2022-08-08T08:42:59.551Z,22.14
2022-08-08T08:48:04.236Z,22.18
2022-08-08T08:53:27.190Z,22.71
2022-08-08T08:58:46.974Z,22.96
2022-08-08T09:04:31.727Z,22.72
2022-08-08T09:09:48.142Z,23.22
2022-08-08T09:15:01.168Z,23.45
2022-08-08T09:21:56.665Z,23.47
2022-08-08T09:25:55.042Z,23.12
2022-08-08T09:31:12.890Z,23.51
2022-08-08T09:36:22.663Z,23.46
2022-08-08T09:42:15.085Z,23.58
2022-08-08T09:48:02.385Z,23.70
2022-08-08T09:53:10.346Z,23.97
2022-08-08T09:58:07.997Z,23.84
2022-08-08T10:03:14.913Z,24.23
2022-08-08T10:08:22.517Z,24.47
2022-08-08T10:13:32.265Z,25.32
2022-08-08T10:18:39.598Z,25.44
2022-08-08T10:23:45.849Z,25.28
2022-08-08T10:28:56.902Z,25.74
2022-08-08T10:34:19.933Z,26.47
2022-08-08T10:39:31.266Z,26.78
2022-08-08T10:44:41.297Z,26.37
2022-08-08T10:50:01.949Z,26.40
2022-08-08T10:55:15.399Z,26.47
2022-08-08T11:00:52.650Z,26.28
2022-08-08T11:06:06.993Z,25.69
2022-08-08T11:11:32.592Z,25.77
2022-08-08T11:16:42.366Z,26.40
2022-08-08T11:21:53.894Z,26.77
2022-08-08T11:27:10.675Z,26.09
2022-08-08T11:32:29.365Z,26.65
2022-08-08T11:38:37.247Z,27.35
2022-08-08T11:42:55.819Z,27.53
2022-08-08T11:48:04.477Z,28.57
2022-08-08T11:53:08.449Z,28.11
2022-08-08T11:58:15.394Z,29.21
2022-08-08T12:03:22.329Z,27.79
2022-08-08T12:08:33.747Z,26.78
2022-08-08T12:14:02.668Z,26.76
2022-08-08T12:19:02.302Z,26.65
2022-08-08T12:24:12.763Z,27.09
2022-08-08T12:29:25.795Z,27.70
2022-08-08T12:35:19.513Z,28.13
2022-08-08T12:40:24.234Z,28.99
2022-08-08T12:45:58.994Z,29.34
2022-08-08T12:50:58.383Z,29.81
2022-08-08T12:56:17.738Z,28.75
2022-08-08T13:01:35.019Z,28.03
2022-08-08T13:06:38.693Z,27.76
2022-08-08T13:12:27.811Z,28.62
2022-08-08T13:18:09.013Z,29.14
2022-08-08T13:22:38.856Z,28.32
2022-08-08T13:27:41.526Z,29.23
2022-08-08T13:32:43.521Z,28.94
2022-08-08T13:38:05.756Z,29.13
2022-08-08T13:43:08.268Z,30.32
2022-08-08T13:48:14.602Z,29.73
2022-08-08T13:53:36.071Z,28.47
2022-08-08T13:58:57.547Z,28.19
2022-08-08T14:04:01.931Z,28.25
2022-08-08T14:09:24.776Z,28.13
2022-08-08T14:14:39.683Z,27.94
2022-08-08T14:19:58.203Z,28.09
2022-08-08T14:25:08.819Z,28.46
2022-08-08T14:30:18.992Z,28.48
2022-08-08T14:35:35.196Z,28.56
2022-08-08T14:40:45.536Z,28.73
2022-08-08T14:46:03.518Z,29.26
2022-08-08T14:51:07.257Z,28.70
2022-08-08T14:56:10.093Z,28.89
2022-08-08T15:01:23.343Z,28.87
2022-08-08T15:06:26.044Z,29.45
2022-08-08T15:11:28.865Z,28.97
2022-08-08T15:16:42.672Z,29.16
2022-08-08T15:21:46.924Z,29.59
2022-08-08T15:26:52.712Z,29.54
2022-08-08T15:32:19.793Z,28.93
2022-08-08T15:37:19.136Z,28.99
2022-08-08T15:42:32.170Z,29.31
2022-08-08T15:48:05.376Z,28.46
2022-08-08T15:53:05.841Z,28.33
2022-08-08T15:58:09.336Z,28.55
2022-08-08T16:03:11.625Z,27.88
2022-08-08T16:08:14.029Z,27.36
2022-08-08T16:13:30.502Z,27.04
2022-08-08T16:18:37.286Z,27.15
2022-08-08T16:23:39.518Z,27.13
2022-08-08T16:28:44.011Z,27.76
2022-08-08T16:33:58.255Z,27.63
2022-08-08T16:39:09.648Z,27.87
2022-08-08T16:44:27.767Z,28.00
2022-08-08T16:49:38.391Z,27.43
2022-08-08T16:55:01.610Z,27.49
2022-08-08T17:00:08.608Z,28.06
2022-08-08T17:05:13.711Z,28.56
2022-08-08T17:10:16.999Z,29.54
2022-08-08T17:15:22.989Z,28.48
2022-08-08T17:20:25.325Z,27.22
2022-08-08T17:25:41.620Z,26.39
2022-08-08T17:30:51.533Z,25.90
2022-08-08T17:36:09.821Z,25.74
2022-08-08T17:41:13.189Z,25.39
2022-08-08T17:46:41.331Z,25.25
2022-08-08T17:51:51.672Z,25.22
2022-08-08T17:56:54.458Z,24.73
2022-08-08T18:01:59.593Z,24.28
2022-08-08T18:07:03.806Z,24.02
2022-08-08T18:12:25.840Z,23.65
2022-08-08T18:18:05.285Z,23.64
2022-08-08T18:22:51.521Z,23.69
2022-08-08T18:27:53.419Z,23.38
2022-08-08T18:32:55.486Z,23.15
2022-08-08T18:38:03.746Z,23.00
2022-08-08T18:43:19.199Z,22.81
2022-08-08T18:48:22.048Z,22.61
2022-08-08T18:53:58.121Z,22.77
2022-08-08T18:58:50.813Z,22.64
2022-08-08T19:04:10.490Z,22.46
2022-08-08T19:09:14.837Z,22.52
2022-08-08T19:14:20.765Z,22.34
2022-08-08T19:19:22.908Z,22.07
2022-08-08T19:24:39.283Z,22.17
2022-08-08T19:29:50.134Z,22.26
2022-08-08T19:34:53.060Z,22.07
2022-08-08T19:39:57.796Z,22.06
2022-08-08T19:45:05.145Z,22.10
2022-08-08T19:50:12.580Z,21.92
2022-08-08T19:55:17.218Z,21.72
2022-08-08T20:00:29.992Z,21.62
2022-08-08T20:06:15.243Z,21.51
2022-08-08T20:10:56.707Z,21.58
2022-08-08T20:16:01.045Z,21.60
2022-08-08T20:21:03.974Z,21.33
2022-08-08T20:26:06.560Z,21.43
2022-08-08T20:31:11.635Z,21.23
2022-08-08T20:36:22.183Z,21.07
2022-08-08T20:41:24.921Z,20.86
2022-08-08T20:46:30.742Z,20.49
2022-08-08T20:51:33.262Z,20.60
2022-08-08T20:57:04.507Z,20.80
2022-08-08T21:02:06.798Z,20.74
2022-08-08T21:07:15.808Z,20.42
2022-08-08T21:12:18.562Z,20.47
2022-08-08T21:17:27.554Z,20.71
2022-08-08T21:22:30.999Z,20.65
2022-08-08T21:28:05.453Z,20.53
2022-08-08T21:32:55.602Z,20.57
2022-08-08T21:38:04.008Z,20.70
2022-08-08T21:43:08.093Z,20.45
2022-08-08T21:48:22.888Z,20.40
2022-08-08T21:54:30.733Z,20.19
2022-08-08T21:58:59.778Z,20.15
2022-08-08T22:04:04.735Z,20.54
2022-08-08T22:09:08.178Z,20.63
2022-08-08T22:14:10.840Z,20.61
2022-08-08T22:19:16.336Z,20.61
2022-08-08T22:24:28.048Z,20.74
2022-08-08T22:29:58.647Z,20.76
2022-08-08T22:34:53.566Z,20.69
2022-08-08T22:40:02.084Z,20.74
2022-08-08T22:45:12.308Z,20.60
2022-08-08T22:50:25.435Z,20.45
2022-08-08T22:55:29.097Z,20.43
2022-08-08T23:00:32.678Z,20.64
2022-08-08T23:05:38.823Z,20.77
2022-08-08T23:10:52.942Z,20.68
2022-08-08T23:16:40.449Z,20.85
2022-08-08T23:21:17.876Z,20.60
2022-08-08T23:26:23.237Z,20.81
2022-08-08T23:31:27.302Z,20.73
2022-08-08T23:36:29.437Z,20.48
2022-08-08T23:41:32.913Z,20.36
2022-08-08T23:49:08.769Z,20.14
2022-08-08T23:52:15.993Z,20.31
2022-08-08T23:57:26.479Z,20.40
